Fort Benning, GA

12:48 AM EDT en Abril 26, 2015 (GMT -0400)
RAWS | | Change Station
CLOSE
Current Station
Estación meteorológica personal
Location: Fort Benning, GA
Altura: 466 ft
Estaciones meteorológicas cercanas

Alt 466 ft 32.40 °N, 84.87 °W | Updated 38 minutes ago

Despejado
Despejado
65 ° F
Sensación térmica 65 ° F
N
5
Viento Variable Viento desde SSO
Gusts 11.0 mph

Hoy
Alta -- | Baja -- ° F
--% Posibilidad de precipitaciones
Ayer
Alta -- | Baja -- ° F
Precip. -- pul
6:58 AM 8:17 PM
Cuarto creciente, 52% visible
Presión 29.67 pul
Visibilidad 9.0 Millas
Nubes Despejado
Punto de rocío 65 ° F
Humedad 100%
Precipitaciones pul
Espesor de la nieve No disponible.
UV 0 de una escala de 12
Polen 2.70 de una escala de 12
Calidad del aire No disponible.
Flu Activity Sporadic
METAR KCSG 260351Z AUTO 23004KT 9SM CLR 19/18 A2968 RMK AO2 SLP047 T01890178

More Conditions Fewer Conditions

Presión 29.67 pul
Visibilidad 9.0 Millas
Nubes Despejado
Punto de rocío 65 ° F
Humedad 100%
Precipitaciones pul
Espesor de la nieve No disponible.
UV 0 de una escala de 12
Polen 2.70 de una escala de 12
Calidad del aire No disponible.
Flu Activity Sporadic
METAR KCSG 260351Z AUTO 23004KT 9SM CLR 19/18 A2968 RMK AO2 SLP047 T01890178

More Conditions Fewer Conditions

The full scope of the disaster following a powerful 7.8-magnitude earthquake in Nepal may not come into view for days, but global charities are already sending emergency aid. Click to see how you can help.

10-Day Weather Forecast

Almanac

Astronomía

Apr. 26, 2015 Salida Puesta
Hora real
Crepúsculo civil
Crepúsculo náutico
Crepúsculo astronómico
Luna
Horas de luz
Horas de luz
Tomorrow will be .
, % of the Moon is Illuminated

Extremos de hoy

Máximos del estado Bajos del estado

Community

WunderPhotos

Upload Photos

1,816,938 ¡fotos cargadas!

WunderBlogs® & News

Nearby

Calidad del aire

  Calidad del aire Índice AQ Contaminante
Not available.

Grosos de nieve

Estación Profundido Altura

Actividad de terremotos

Ciudad Distance Mag. Tiempo y dato
Magnitud mínima muestra es 2,5.

Temperaturas de aguas costeras

Lugar Temperatura

Stations

Estaciones meteorológicas cercanas

Ubicación de la estación Temp. Vientos helados Punto de rocío Humedad Viento Precip. Alt Actualizado Tipo